Terminal Aerodrome Forecast
Issued by NWS

Home | Current Version | Previous Version | Text Only | Print | Product List | Glossary On
Versions: 1 2 3 4 5 6 7 8 9 10 11 12 13 14 15 16 17 18 19 20 21 22 23 24 25 26 27 28 29 30 31 32 33 34
000
FTUS46 KLOX 191905 AAA
TAFLAX
TAF AMD
KLAX 191905Z 1919/2024 27016KT P6SM SCT015
     FM192100 25018G28KT P6SM SCT015 SCT050
     FM200400 25012KT P6SM SCT035 BKN080
     FM201500 14012KT 5SM -RA BR BKN025 OVC040
     FM201700 15018G28KT 2SM RA BR BKN006 OVC015
     FM202100 23020G30KT 4SM -RA BR BKN015 OVC025=

USA.gov is the U.S. government's official web portal to all federal, state and local government web resources and services.